Time,TemperatureF,DewpointF,PressureIn,WindDirection,WindDirectionDegrees,WindSpeedMPH,WindSpeedGustMPH,Humidity,HourlyPrecipIn,Conditions,Clouds,dailyrainin,SoftwareType,DateUTC
2013-04-18 00:00:00,44.5,7.9,29.62,West,269,2.0,2.0,22,0.00,,,0.00,Wunderground v.1.15,2013-04-18 07:00:00,
2013-04-18 00:10:00,42.7,7.4,29.62,WSW,250,2.0,2.0,23,0.00,,,0.00,Wunderground v.1.15,2013-04-18 07:10:00,
2013-04-18 00:15:00,41.5,7.3,29.62,WSW,254,2.0,3.0,24,0.00,,,0.00,Wunderground v.1.15,2013-04-18 07:15:00,
2013-04-18 00:20:00,40.4,7.3,29.62,WSW,253,2.0,3.0,25,0.00,,,0.00,Wunderground v.1.15,2013-04-18 07:20:00,
2013-04-18 00:25:00,39.6,7.5,29.62,WSW,252,3.0,4.0,26,0.00,,,0.00,Wunderground v.1.15,2013-04-18 07:25:00,
2013-04-18 00:30:00,39.0,7.8,29.62,WSW,249,3.0,3.0,27,0.00,,,0.00,Wunderground v.1.15,2013-04-18 07:30:00,
2013-04-18 00:40:00,38.8,7.6,29.62,SW,224,4.0,7.0,27,0.00,,,0.00,Wunderground v.1.15,2013-04-18 07:40:00,
2013-04-18 00:45:00,39.2,8.0,29.62,SW,221,5.0,7.0,27,0.00,,,0.00,Wunderground v.1.15,2013-04-18 07:45:00,
2013-04-18 00:50:00,39.1,7.9,29.62,SW,216,6.0,8.0,27,0.00,,,0.00,Wunderground v.1.15,2013-04-18 07:50:00,
2013-04-18 00:55:00,39.8,7.6,29.62,SW,222,6.0,8.0,26,0.00,,,0.00,Wunderground v.1.15,2013-04-18 07:55:00,
2013-04-18 01:00:00,39.7,7.6,29.62,SW,231,7.0,7.0,26,0.00,,,0.00,Wunderground v.1.15,2013-04-18 08:00:00,
2013-04-18 01:10:00,39.6,7.5,29.62,SW,229,7.0,8.0,26,0.00,,,0.00,Wunderground v.1.15,2013-04-18 08:10:00,
2013-04-18 01:15:00,40.1,7.9,29.62,SW,235,7.0,8.0,26,0.00,,,0.00,Wunderground v.1.15,2013-04-18 08:15:00,
2013-04-18 01:20:00,40.2,8.0,29.62,WSW,242,6.0,6.0,26,0.00,,,0.00,Wunderground v.1.15,2013-04-18 08:20:00,
2013-04-18 01:30:00,40.0,6.9,29.62,WSW,251,5.0,5.0,25,0.00,,,0.00,Wunderground v.1.15,2013-04-18 08:30:00,
2013-04-18 01:35:00,39.9,6.9,29.62,WSW,254,5.0,5.0,25,0.00,,,0.00,Wunderground v.1.15,2013-04-18 08:35:00,
2013-04-18 01:40:00,39.7,7.6,29.62,WSW,254,3.0,3.0,26,0.00,,,0.00,Wunderground v.1.15,2013-04-18 08:40:00,
2013-04-18 01:45:00,38.7,6.7,29.62,WSW,254,1.0,3.0,26,0.00,,,0.00,Wunderground v.1.15,2013-04-18 08:45:00,
2013-04-18 01:50:00,38.1,7.0,29.62,WSW,240,2.0,3.0,27,0.00,,,0.00,Wunderground v.1.15,2013-04-18 08:50:00,
2013-04-18 01:55:00,37.8,6.8,29.62,SW,230,3.0,6.0,27,0.00,,,0.00,Wunderground v.1.15,2013-04-18 08:55:00,
2013-04-18 02:00:00,37.8,6.8,29.62,SW,224,4.0,6.0,27,0.00,,,0.00,Wunderground v.1.15,2013-04-18 09:00:00,
2013-04-18 02:10:00,38.2,7.1,29.62,SW,218,5.0,5.0,27,0.00,,,0.00,Wunderground v.1.15,2013-04-18 09:10:00,
2013-04-18 02:15:00,37.6,6.6,29.62,SSW,198,5.0,5.0,27,0.00,,,0.00,Wunderground v.1.15,2013-04-18 09:15:00,
2013-04-18 02:20:00,37.6,6.6,29.62,SSW,198,5.0,6.0,27,0.00,,,0.00,Wunderground v.1.15,2013-04-18 09:20:00,
2013-04-18 02:25:00,38.1,7.0,29.62,SSW,204,5.0,6.0,27,0.00,,,0.00,Wunderground v.1.15,2013-04-18 09:25:00,
2013-04-18 02:30:00,37.8,6.8,29.62,SSW,205,5.0,7.0,27,0.00,,,0.00,Wunderground v.1.15,2013-04-18 09:30:00,
2013-04-18 02:35:00,36.6,6.5,29.62,SSW,197,6.0,7.0,28,0.00,,,0.00,Wunderground v.1.15,2013-04-18 09:35:00,
2013-04-18 02:40:00,35.3,6.2,29.62,SSW,198,6.0,7.0,29,0.00,,,0.00,Wunderground v.1.15,2013-04-18 09:40:00,
2013-04-18 02:50:00,33.0,5.6,29.62,SSW,197,4.0,4.0,31,0.00,,,0.00,Wunderground v.1.15,2013-04-18 09:50:00,
2013-04-18 02:55:00,32.6,6.6,29.62,NW,321,2.0,4.0,33,0.00,,,0.00,Wunderground v.1.15,2013-04-18 09:55:00,
2013-04-18 03:00:00,32.9,7.6,29.62,NW,321,1.0,1.0,34,0.00,,,0.00,Wunderground v.1.15,2013-04-18 10:00:00,
2013-04-18 03:10:00,35.6,8.6,29.62,NW,318,0.0,0.0,32,0.00,,,0.00,Wunderground v.1.15,2013-04-18 10:10:00,
2013-04-18 03:15:00,36.1,6.9,29.62,NW,318,0.0,0.0,29,0.00,,,0.00,Wunderground v.1.15,2013-04-18 10:15:00,
2013-04-18 03:20:00,35.5,7.1,29.62,NW,317,0.0,0.0,30,0.00,,,0.00,Wunderground v.1.15,2013-04-18 10:20:00,
2013-04-18 03:25:00,35.2,7.5,29.62,NW,309,0.0,0.0,31,0.00,,,0.00,Wunderground v.1.15,2013-04-18 10:25:00,
2013-04-18 03:35:00,35.4,7.0,29.62,NW,308,0.0,0.0,30,0.00,,,0.00,Wunderground v.1.15,2013-04-18 10:35:00,
2013-04-18 03:40:00,35.3,6.9,29.62,NW,309,0.0,0.0,30,0.00,,,0.00,Wunderground v.1.15,2013-04-18 10:40:00,
2013-04-18 03:45:00,34.5,10.2,29.62,NW,308,0.0,0.0,36,0.00,,,0.00,Wunderground v.1.15,2013-04-18 10:45:00,
2013-04-18 03:50:00,33.5,8.7,29.62,NW,308,0.0,0.0,35,0.00,,,0.00,Wunderground v.1.15,2013-04-18 10:50:00,
2013-04-18 03:55:00,33.8,8.4,29.62,NW,308,0.0,0.0,34,0.00,,,0.00,Wunderground v.1.15,2013-04-18 10:55:00,
2013-04-18 04:00:00,33.7,7.6,29.62,NW,308,0.0,0.0,33,0.00,,,0.00,Wunderground v.1.15,2013-04-18 11:00:00,
2013-04-18 04:10:00,32.7,6.7,29.62,West,271,0.0,0.0,33,0.00,,,0.00,Wunderground v.1.15,2013-04-18 11:10:00,
2013-04-18 04:15:00,32.4,7.1,29.62,SW,215,0.0,0.0,34,0.00,,,0.00,Wunderground v.1.15,2013-04-18 11:15:00,
2013-04-18 04:20:00,32.5,7.2,29.62,SSW,212,0.0,0.0,34,0.00,,,0.00,Wunderground v.1.15,2013-04-18 11:20:00,
2013-04-18 04:30:00,32.9,6.9,29.62,SSW,209,1.0,1.0,33,0.00,,,0.00,Wunderground v.1.15,2013-04-18 11:30:00,
2013-04-18 04:40:00,32.3,7.0,29.62,SSW,199,2.0,5.0,34,0.00,,,0.00,Wunderground v.1.15,2013-04-18 11:40:00,
2013-04-18 04:45:00,32.1,6.8,29.62,South,187,4.0,6.0,34,0.00,,,0.00,Wunderground v.1.15,2013-04-18 11:45:00,
2013-04-18 04:50:00,31.7,7.1,29.62,South,188,5.0,5.0,35,0.00,,,0.00,Wunderground v.1.15,2013-04-18 11:50:00,
2013-04-18 04:55:00,31.2,7.3,29.62,South,190,5.0,5.0,36,0.00,,,0.00,Wunderground v.1.15,2013-04-18 11:55:00,
2013-04-18 05:00:00,31.2,7.3,29.62,South,190,4.0,4.0,36,0.00,,,0.00,Wunderground v.1.15,2013-04-18 12:00:00,
2013-04-18 05:10:00,31.9,7.3,29.62,South,188,1.0,1.0,35,0.00,,,0.00,Wunderground v.1.15,2013-04-18 12:10:00,
2013-04-18 05:15:00,32.0,7.4,29.62,South,188,0.0,1.0,35,0.00,,,0.00,Wunderground v.1.15,2013-04-18 12:15:00,
2013-04-18 05:25:00,31.5,6.9,29.62,South,188,1.0,4.0,35,0.00,,,0.00,Wunderground v.1.15,2013-04-18 12:25:00,
2013-04-18 05:30:00,30.6,6.8,29.62,South,190,3.0,5.0,36,0.00,,,0.00,Wunderground v.1.15,2013-04-18 12:30:00,
2013-04-18 05:35:00,29.6,6.5,29.62,South,188,5.0,5.0,37,0.00,,,0.00,Wunderground v.1.15,2013-04-18 12:35:00,
2013-04-18 05:40:00,29.5,7.0,29.62,South,189,5.0,5.0,38,0.00,,,0.00,Wunderground v.1.15,2013-04-18 12:40:00,
2013-04-18 05:50:00,30.9,7.6,29.62,South,189,2.0,2.0,37,0.00,,,0.00,Wunderground v.1.15,2013-04-18 12:50:00,
2013-04-18 05:55:00,31.7,7.7,29.62,South,190,1.0,2.0,36,0.00,,,0.00,Wunderground v.1.15,2013-04-18 12:55:00,
2013-04-18 06:00:00,32.3,7.7,29.62,South,190,0.0,0.0,35,0.00,,,0.00,Wunderground v.1.15,2013-04-18 13:00:00,
2013-04-18 06:10:00,33.1,9.0,29.62,SSW,212,0.0,0.0,36,0.00,,,0.00,Wunderground v.1.15,2013-04-18 13:10:00,
2013-04-18 06:15:00,33.7,10.1,29.62,SSW,212,0.0,0.0,37,0.00,,,0.00,Wunderground v.1.15,2013-04-18 13:15:00,
2013-04-18 06:20:00,34.7,9.8,29.62,SSW,212,0.0,0.0,35,0.00,,,0.00,Wunderground v.1.15,2013-04-18 13:20:00,
2013-04-18 06:30:00,37.1,9.9,29.62,SSW,212,0.0,0.0,32,0.00,,,0.00,Wunderground v.1.15,2013-04-18 13:30:00,
2013-04-18 06:35:00,38.6,9.0,29.62,SSW,213,0.0,0.0,29,0.00,,,0.00,Wunderground v.1.15,2013-04-18 13:35:00,
2013-04-18 06:40:00,39.9,9.4,29.62,SSW,212,0.0,0.0,28,0.00,,,0.00,Wunderground v.1.15,2013-04-18 13:40:00,
2013-04-18 06:45:00,40.8,9.3,29.62,SSW,213,0.0,0.0,27,0.00,,,0.00,Wunderground v.1.15,2013-04-18 13:45:00,
2013-04-18 06:50:00,41.8,9.4,29.62,SSW,213,0.0,0.0,26,0.00,,,0.00,Wunderground v.1.15,2013-04-18 13:50:00,
2013-04-18 06:55:00,42.7,9.3,29.62,SSW,212,0.0,0.0,25,0.00,,,0.00,Wunderground v.1.15,2013-04-18 13:55:00,
2013-04-18 07:00:00,43.8,10.2,29.62,SW,221,0.0,0.0,25,0.00,,,0.00,Wunderground v.1.15,2013-04-18 14:00:00,
2013-04-18 07:10:00,45.2,9.5,29.62,SW,226,0.0,0.0,23,0.00,,,0.00,Wunderground v.1.15,2013-04-18 14:10:00,
2013-04-18 07:15:00,46.0,10.2,29.62,SW,226,0.0,0.0,23,0.00,,,0.00,Wunderground v.1.15,2013-04-18 14:15:00,
2013-04-18 07:25:00,46.4,10.5,29.62,SW,227,0.0,0.0,23,0.00,,,0.00,Wunderground v.1.15,2013-04-18 14:25:00,
2013-04-18 07:35:00,46.3,14.1,29.62,North,355,0.0,0.0,27,0.00,,,0.00,Wunderground v.1.15,2013-04-18 14:35:00,
2013-04-18 07:45:00,46.4,15.0,29.62,North,5,0.0,0.0,28,0.00,,,0.00,Wunderground v.1.15,2013-04-18 14:45:00,
2013-04-18 07:50:00,46.7,13.6,29.62,North,5,0.0,0.0,26,0.00,,,0.00,Wunderground v.1.15,2013-04-18 14:50:00,
2013-04-18 07:55:00,47.2,13.1,29.62,North,5,0.0,0.0,25,0.00,,,0.00,Wunderground v.1.15,2013-04-18 14:55:00,
2013-04-18 08:00:00,47.5,11.5,29.62,NE,37,1.0,2.0,23,0.00,,,0.00,Wunderground v.1.15,2013-04-18 15:00:00,
2013-04-18 08:10:00,47.7,12.6,29.62,NNW,343,4.0,4.0,24,0.00,,,0.00,Wunderground v.1.15,2013-04-18 15:10:00,
2013-04-18 08:15:00,47.7,12.6,29.62,NNW,348,3.0,4.0,24,0.00,,,0.00,Wunderground v.1.15,2013-04-18 15:15:00,
2013-04-18 08:20:00,48.1,13.0,29.62,North,351,1.0,1.0,24,0.00,,,0.00,Wunderground v.1.15,2013-04-18 15:20:00,
2013-04-18 08:25:00,48.3,13.1,29.62,North,360,1.0,1.0,24,0.00,,,0.00,Wunderground v.1.15,2013-04-18 15:25:00,
2013-04-18 08:30:00,48.7,13.5,29.62,NNE,17,1.0,1.0,24,0.00,,,0.00,Wunderground v.1.15,2013-04-18 15:30:00,
2013-04-18 08:36:00,48.8,12.6,29.62,NNE,30,1.0,1.0,23,0.00,,,0.00,Wunderground v.1.15,2013-04-18 15:36:00,
2013-04-18 08:45:00,49.2,12.9,29.62,NNE,22,2.0,2.0,23,0.00,,,0.00,Wunderground v.1.15,2013-04-18 15:45:00,
2013-04-18 08:55:00,49.5,12.2,29.62,NNW,341,3.0,7.0,22,0.00,,,0.00,Wunderground v.1.15,2013-04-18 15:55:00,
2013-04-18 09:00:00,49.9,12.5,29.62,NE,38,2.0,2.0,22,0.00,,,0.00,Wunderground v.1.15,2013-04-18 16:00:00,
2013-04-18 09:10:00,50.8,13.3,29.62,NNE,33,1.0,7.0,22,0.00,,,0.00,Wunderground v.1.15,2013-04-18 16:10:00,
2013-04-18 09:15:00,51.3,12.6,29.62,North,350,2.0,7.0,21,0.00,,,0.00,Wunderground v.1.15,2013-04-18 16:15:00,
2013-04-18 09:20:00,51.2,12.5,29.62,WNW,297,2.0,2.0,21,0.00,,,0.00,Wunderground v.1.15,2013-04-18 16:20:00,
2013-04-18 09:25:00,51.3,13.7,29.62,NW,311,1.0,10.0,22,0.00,,,0.00,Wunderground v.1.15,2013-04-18 16:25:00,
2013-04-18 09:30:00,51.3,12.6,29.62,WNW,293,4.0,4.0,21,0.00,,,0.00,Wunderground v.1.15,2013-04-18 16:30:00,
2013-04-18 09:35:00,51.8,11.9,29.62,NW,324,5.0,5.0,20,0.00,,,0.00,Wunderground v.1.15,2013-04-18 16:35:00,
2013-04-18 09:40:00,52.2,13.4,29.62,WNW,291,5.0,6.0,21,0.00,,,0.00,Wunderground v.1.15,2013-04-18 16:40:00,
2013-04-18 09:45:00,52.4,12.4,29.62,NW,305,5.0,6.0,20,0.00,,,0.00,Wunderground v.1.15,2013-04-18 16:45:00,
2013-04-18 09:50:00,53.2,11.9,29.62,WNW,296,5.0,5.0,19,0.00,,,0.00,Wunderground v.1.15,2013-04-18 16:50:00,
2013-04-18 10:00:00,53.3,10.8,29.62,WNW,290,5.0,7.0,18,0.00,,,0.00,Wunderground v.1.15,2013-04-18 17:00:00,
2013-04-18 10:10:00,53.3,10.8,29.62,NW,317,5.0,7.0,18,0.00,,,0.00,Wunderground v.1.15,2013-04-18 17:10:00,
2013-04-18 10:15:00,53.3,12.0,29.62,WNW,286,5.0,7.0,19,0.00,,,0.00,Wunderground v.1.15,2013-04-18 17:15:00,
2013-04-18 10:20:00,53.7,11.1,29.62,West,271,7.0,8.0,18,0.00,,,0.00,Wunderground v.1.15,2013-04-18 17:20:00,
2013-04-18 10:25:00,53.6,11.0,29.62,NW,304,6.0,8.0,18,0.00,,,0.00,Wunderground v.1.15,2013-04-18 17:25:00,
2013-04-18 10:30:00,54.3,11.6,29.62,NW,319,3.0,3.0,18,0.00,,,0.00,Wunderground v.1.15,2013-04-18 17:30:00,
2013-04-18 10:35:00,54.7,12.0,29.62,West,279,3.0,7.0,18,0.00,,,0.00,Wunderground v.1.15,2013-04-18 17:35:00,
2013-04-18 10:40:00,55.0,12.2,29.62,WNW,299,5.0,6.0,18,0.00,,,0.00,Wunderground v.1.15,2013-04-18 17:40:00,
2013-04-18 10:45:00,55.2,11.1,29.62,NNW,340,7.0,10.0,17,0.00,,,0.00,Wunderground v.1.15,2013-04-18 17:45:00,
2013-04-18 10:55:00,54.9,10.8,29.62,NNW,331,4.0,7.0,17,0.00,,,0.00,Wunderground v.1.15,2013-04-18 17:55:00,
2013-04-18 11:00:00,55.3,11.2,29.62,NW,316,3.0,12.0,17,0.00,,,0.00,Wunderground v.1.15,2013-04-18 18:00:00,
2013-04-18 11:10:00,55.8,10.2,29.62,WNW,294,6.0,6.0,16,0.00,,,0.00,Wunderground v.1.15,2013-04-18 18:10:00,
2013-04-18 11:15:00,55.9,10.3,29.62,WNW,287,3.0,6.0,16,0.00,,,0.00,Wunderground v.1.15,2013-04-18 18:15:00,
2013-04-18 11:20:00,56.0,10.4,29.62,WNW,293,5.0,5.0,16,0.00,,,0.00,Wunderground v.1.15,2013-04-18 18:20:00,
2013-04-18 11:30:00,56.3,12.0,29.62,NNE,19,4.0,8.0,17,0.00,,,0.00,Wunderground v.1.15,2013-04-18 18:30:00,
2013-04-18 11:35:00,56.9,11.1,29.62,NW,306,6.0,11.0,16,0.00,,,0.00,Wunderground v.1.15,2013-04-18 18:35:00,
2013-04-18 11:40:00,56.7,9.5,29.62,NW,312,8.0,8.0,15,0.00,,,0.00,Wunderground v.1.15,2013-04-18 18:40:00,
2013-04-18 11:45:00,57.8,13.2,29.62,NNW,331,8.0,11.0,17,0.00,,,0.00,Wunderground v.1.15,2013-04-18 18:45:00,
2013-04-18 11:50:00,57.8,10.4,29.62,NNW,344,8.0,10.0,15,0.00,,,0.00,Wunderground v.1.15,2013-04-18 18:50:00,
2013-04-18 12:00:00,57.3,10.0,29.62,WNW,296,6.0,6.0,15,0.00,,,0.00,Wunderground v.1.15,2013-04-18 19:00:00,
2013-04-18 12:10:00,57.5,8.6,29.62,NW,313,3.0,7.0,14,0.00,,,0.00,Wunderground v.1.15,2013-04-18 19:10:00,
2013-04-18 12:20:00,58.1,7.4,29.62,NW,315,4.0,4.0,13,0.00,,,0.00,Wunderground v.1.15,2013-04-18 19:20:00,
2013-04-18 12:25:00,58.6,7.8,29.62,NE,40,3.0,4.0,13,0.00,,,0.00,Wunderground v.1.15,2013-04-18 19:25:00,
2013-04-18 12:30:00,59.0,9.8,29.62,North,5,4.0,4.0,14,0.00,,,0.00,Wunderground v.1.15,2013-04-18 19:30:00,
2013-04-18 12:35:00,59.5,6.8,29.62,NW,325,5.0,7.0,12,0.00,,,0.00,Wunderground v.1.15,2013-04-18 19:35:00,
2013-04-18 12:40:00,59.2,6.5,29.62,NW,326,5.0,5.0,12,0.00,,,0.00,Wunderground v.1.15,2013-04-18 19:40:00,
2013-04-18 12:45:00,59.4,4.8,29.62,North,360,5.0,12.0,11,0.00,,,0.00,Wunderground v.1.15,2013-04-18 19:45:00,
2013-04-18 12:50:00,59.5,4.8,29.62,WNW,289,8.0,10.0,11,0.00,,,0.00,Wunderground v.1.15,2013-04-18 19:50:00,
2013-04-18 12:55:00,60.0,3.2,29.62,West,271,9.0,10.0,10,0.00,,,0.00,Wunderground v.1.15,2013-04-18 19:55:00,
2013-04-18 13:00:00,59.7,5.0,29.62,NW,326,7.0,7.0,11,0.00,,,0.00,Wunderground v.1.15,2013-04-18 20:00:00,
2013-04-18 13:10:00,59.9,5.2,29.62,WNW,287,4.0,4.0,11,0.00,,,0.00,Wunderground v.1.15,2013-04-18 20:10:00,
2013-04-18 13:15:00,59.8,5.1,29.62,SW,236,3.0,4.0,11,0.00,,,0.00,Wunderground v.1.15,2013-04-18 20:15:00,
2013-04-18 13:25:00,60.4,7.5,29.62,WNW,293,6.0,9.0,12,0.00,,,0.00,Wunderground v.1.15,2013-04-18 20:25:00,
2013-04-18 13:35:00,61.1,4.0,29.62,WSW,238,9.0,13.0,10,0.00,,,0.00,Wunderground v.1.15,2013-04-18 20:35:00,
2013-04-18 13:40:00,60.9,3.9,29.62,SW,225,6.0,6.0,10,0.00,,,0.00,Wunderground v.1.15,2013-04-18 20:40:00,
2013-04-18 13:45:00,61.4,6.3,29.62,NW,325,3.0,6.0,11,0.00,,,0.00,Wunderground v.1.15,2013-04-18 20:45:00,
2013-04-18 13:55:00,61.4,2.0,29.62,West,280,5.0,7.0,9,0.00,,,0.00,Wunderground v.1.15,2013-04-18 20:55:00,
2013-04-18 14:00:00,61.4,-0.6,29.62,West,270,7.0,7.0,8,0.00,,,0.00,Wunderground v.1.15,2013-04-18 21:00:00,
2013-04-18 14:10:00,60.6,-1.2,29.62,NW,313,6.0,6.0,8,0.00,,,0.00,Wunderground v.1.15,2013-04-18 21:10:00,
2013-04-18 14:20:00,61.3,1.9,29.62,SSW,194,5.0,5.0,9,0.00,,,0.00,Wunderground v.1.15,2013-04-18 21:20:00,
2013-04-18 14:25:00,62.3,0.1,29.62,SW,233,6.0,6.0,8,0.00,,,0.00,Wunderground v.1.15,2013-04-18 21:25:00,
2013-04-18 14:30:00,62.5,0.3,29.62,WSW,244,4.0,13.0,8,0.00,,,0.00,Wunderground v.1.15,2013-04-18 21:30:00,
2013-04-18 14:35:00,62.6,2.9,29.62,NW,317,7.0,13.0,9,0.00,,,0.00,Wunderground v.1.15,2013-04-18 21:35:00,
2013-04-18 14:45:00,62.5,0.3,29.62,SW,223,6.0,9.0,8,0.00,,,0.00,Wunderground v.1.15,2013-04-18 21:45:00,
2013-04-18 14:50:00,62.2,0.0,29.62,WNW,284,7.0,12.0,8,0.00,,,0.00,Wunderground v.1.15,2013-04-18 21:50:00,
2013-04-18 14:55:00,62.6,2.9,29.62,NNW,329,10.0,12.0,9,0.00,,,0.00,Wunderground v.1.15,2013-04-18 21:55:00,
2013-04-18 15:00:00,61.8,2.3,29.62,NW,312,5.0,5.0,9,0.00,,,0.00,Wunderground v.1.15,2013-04-18 22:00:00,
2013-04-18 15:10:00,62.2,0.0,29.62,WNW,301,8.0,8.0,8,0.00,,,0.00,Wunderground v.1.15,2013-04-18 22:10:00,
2013-04-18 15:15:00,62.1,0.0,29.62,North,5,7.0,8.0,8,0.00,,,0.00,Wunderground v.1.15,2013-04-18 22:15:00,
2013-04-18 15:20:00,62.3,0.1,29.62,WNW,292,3.0,3.0,8,0.00,,,0.00,Wunderground v.1.15,2013-04-18 22:20:00,
2013-04-18 15:25:00,62.5,0.3,29.62,WSW,247,5.0,10.0,8,0.00,,,0.00,Wunderground v.1.15,2013-04-18 22:25:00,
2013-04-18 15:30:00,62.4,2.7,29.62,NNW,328,9.0,9.0,9,0.00,,,0.00,Wunderground v.1.15,2013-04-18 22:30:00,
2013-04-18 15:40:00,62.5,-2.6,29.62,SW,229,5.0,8.0,7,0.00,,,0.00,Wunderground v.1.15,2013-04-18 22:40:00,
2013-04-18 15:45:00,63.1,-2.1,29.62,SW,219,4.0,8.0,7,0.00,,,0.00,Wunderground v.1.15,2013-04-18 22:45:00,
2013-04-18 15:50:00,63.2,-2.0,29.62,WNW,291,3.0,17.0,7,0.00,,,0.00,Wunderground v.1.15,2013-04-18 22:50:00,
2013-04-18 15:55:00,63.2,-2.0,29.62,WNW,290,5.0,17.0,7,0.00,,,0.00,Wunderground v.1.15,2013-04-18 22:55:00,
2013-04-18 16:00:00,63.1,-2.1,29.62,SW,236,8.0,10.0,7,0.00,,,0.00,Wunderground v.1.15,2013-04-18 23:00:00,
2013-04-18 16:10:00,63.0,-2.2,29.62,WSW,257,5.0,6.0,7,0.00,,,0.00,Wunderground v.1.15,2013-04-18 23:10:00,
2013-04-18 16:15:00,63.5,1.0,29.62,WNW,285,5.0,10.0,8,0.00,,,0.00,Wunderground v.1.15,2013-04-18 23:15:00,
2013-04-18 16:20:00,63.2,-2.0,29.62,West,263,8.0,13.0,7,0.00,,,0.00,Wunderground v.1.15,2013-04-18 23:20:00,
2013-04-18 16:25:00,62.6,-2.5,29.62,WNW,292,9.0,13.0,7,0.00,,,0.00,Wunderground v.1.15,2013-04-18 23:25:00,
2013-04-18 16:30:00,62.2,-2.8,29.62,WNW,294,6.0,6.0,7,0.00,,,0.00,Wunderground v.1.15,2013-04-18 23:30:00,
2013-04-18 16:35:00,62.8,-2.3,29.62,WSW,246,4.0,7.0,7,0.00,,,0.00,Wunderground v.1.15,2013-04-18 23:35:00,
2013-04-18 16:40:00,62.7,-2.4,29.62,West,267,6.0,10.0,7,0.00,,,0.00,Wunderground v.1.15,2013-04-18 23:40:00,
2013-04-18 16:45:00,62.5,0.3,29.62,West,277,8.0,10.0,8,0.00,,,0.00,Wunderground v.1.15,2013-04-18 23:45:00,
2013-04-18 16:50:00,62.5,0.3,29.62,NW,310,7.0,7.0,8,0.00,,,0.00,Wunderground v.1.15,2013-04-18 23:50:00,
2013-04-18 17:00:00,62.5,0.3,29.62,WNW,282,7.0,7.0,8,0.00,,,0.00,Wunderground v.1.15,2013-04-19 00:00:00,
2013-04-18 17:10:00,62.7,0.4,29.62,WSW,239,7.0,7.0,8,0.00,,,0.00,Wunderground v.1.15,2013-04-19 00:10:00,
2013-04-18 17:15:00,62.7,0.4,29.62,West,276,8.0,8.0,8,0.00,,,0.00,Wunderground v.1.15,2013-04-19 00:15:00,
2013-04-18 17:25:00,62.1,0.0,29.62,WNW,300,6.0,7.0,8,0.00,,,0.00,Wunderground v.1.15,2013-04-19 00:25:00,
2013-04-18 17:30:00,62.0,-0.1,29.62,West,259,6.0,8.0,8,0.00,,,0.00,Wunderground v.1.15,2013-04-19 00:30:00,
2013-04-18 17:35:00,62.2,2.6,29.62,West,278,6.0,10.0,9,0.00,,,0.00,Wunderground v.1.15,2013-04-19 00:35:00,
2013-04-18 17:40:00,61.9,-0.2,29.62,West,278,9.0,10.0,8,0.00,,,0.00,Wunderground v.1.15,2013-04-19 00:40:00,
2013-04-18 17:45:00,61.6,2.1,29.62,WNW,286,10.0,10.0,9,0.00,,,0.00,Wunderground v.1.15,2013-04-19 00:45:00,
2013-04-18 17:50:00,61.4,2.0,29.62,WNW,296,8.0,8.0,9,0.00,,,0.00,Wunderground v.1.15,2013-04-19 00:50:00,
2013-04-18 18:00:00,61.2,1.8,29.62,West,272,7.0,7.0,9,0.00,,,0.00,Wunderground v.1.15,2013-04-19 01:00:00,
2013-04-18 18:10:00,60.6,1.3,29.62,West,273,9.0,9.0,9,0.00,,,0.00,Wunderground v.1.15,2013-04-19 01:10:00,
2013-04-18 18:20:00,60.2,1.0,29.62,West,267,8.0,11.0,9,0.00,,,0.00,Wunderground v.1.15,2013-04-19 01:20:00,
2013-04-18 18:25:00,59.8,3.0,29.62,West,261,8.0,11.0,10,0.00,,,0.00,Wunderground v.1.15,2013-04-19 01:25:00,
2013-04-18 18:30:00,59.6,2.9,29.62,WSW,258,7.0,7.0,10,0.00,,,0.00,Wunderground v.1.15,2013-04-19 01:30:00,
2013-04-18 18:35:00,59.2,2.5,29.62,WSW,255,7.0,7.0,10,0.00,,,0.00,Wunderground v.1.15,2013-04-19 01:35:00,
2013-04-18 18:40:00,58.4,1.9,29.62,WSW,257,8.0,8.0,10,0.00,,,0.00,Wunderground v.1.15,2013-04-19 01:40:00,
2013-04-18 18:46:00,57.7,3.4,29.62,WSW,257,7.0,8.0,11,0.00,,,0.00,Wunderground v.1.15,2013-04-19 01:46:00,
2013-04-18 18:55:00,56.4,4.3,29.62,WSW,254,5.0,6.0,12,0.00,,,0.00,Wunderground v.1.15,2013-04-19 01:55:00,
2013-04-18 19:00:00,55.9,3.9,29.62,West,259,5.0,5.0,12,0.00,,,0.00,Wunderground v.1.15,2013-04-19 02:00:00,
2013-04-18 19:10:00,55.4,3.5,29.62,WSW,253,6.0,6.0,12,0.00,,,0.00,Wunderground v.1.15,2013-04-19 02:10:00,
2013-04-18 19:20:00,54.8,4.8,29.62,West,259,6.0,7.0,13,0.00,,,0.00,Wunderground v.1.15,2013-04-19 02:20:00,
2013-04-18 19:25:00,54.3,4.4,29.62,WSW,254,6.0,7.0,13,0.00,,,0.00,Wunderground v.1.15,2013-04-19 02:25:00,
2013-04-18 19:30:00,53.8,4.0,29.62,WSW,251,6.0,6.0,13,0.00,,,0.00,Wunderground v.1.15,2013-04-19 02:30:00,
2013-04-18 19:35:00,53.6,5.5,29.62,WSW,252,5.0,6.0,14,0.00,,,0.00,Wunderground v.1.15,2013-04-19 02:35:00,
2013-04-18 19:40:00,52.9,4.9,29.62,WSW,252,4.0,4.0,14,0.00,,,0.00,Wunderground v.1.15,2013-04-19 02:40:00,
2013-04-18 19:45:00,52.2,4.3,29.62,WSW,252,3.0,4.0,14,0.00,,,0.00,Wunderground v.1.15,2013-04-19 02:45:00,
2013-04-18 19:55:00,49.7,10.2,29.62,NNW,332,3.0,3.0,20,0.00,,,0.00,Wunderground v.1.15,2013-04-19 02:55:00,
2013-04-18 20:00:00,49.2,10.9,29.62,NW,312,3.0,3.0,21,0.00,,,0.00,Wunderground v.1.15,2013-04-19 03:00:00,
2013-04-18 20:10:00,49.1,6.1,29.62,WNW,284,3.0,3.0,17,0.00,,,0.00,Wunderground v.1.15,2013-04-19 03:10:00,
2013-04-18 20:15:00,49.9,6.7,29.62,WNW,284,2.0,3.0,17,0.00,,,0.00,Wunderground v.1.15,2013-04-19 03:15:00,
2013-04-18 20:20:00,50.6,6.0,29.62,WNW,294,2.0,3.0,16,0.00,,,0.00,Wunderground v.1.15,2013-04-19 03:20:00,
2013-04-18 20:25:00,49.8,9.1,29.62,WNW,302,2.0,3.0,19,0.00,,,0.00,Wunderground v.1.15,2013-04-19 03:25:00,
2013-04-18 20:30:00,49.4,6.3,29.62,WNW,285,1.0,2.0,17,0.00,,,0.00,Wunderground v.1.15,2013-04-19 03:30:00,
2013-04-18 20:35:00,49.1,4.8,29.62,West,277,1.0,2.0,16,0.00,,,0.00,Wunderground v.1.15,2013-04-19 03:35:00,
2013-04-18 20:40:00,48.5,5.6,29.62,West,274,2.0,2.0,17,0.00,,,0.00,Wunderground v.1.15,2013-04-19 03:40:00,
2013-04-18 20:45:00,48.9,4.6,29.62,West,275,2.0,2.0,16,0.00,,,0.00,Wunderground v.1.15,2013-04-19 03:45:00,
2013-04-18 20:50:00,49.0,4.7,29.62,West,268,2.0,3.0,16,0.00,,,0.00,Wunderground v.1.15,2013-04-19 03:50:00,
2013-04-18 20:55:00,48.3,4.1,29.62,West,263,2.0,3.0,16,0.00,,,0.00,Wunderground v.1.15,2013-04-19 03:55:00,
2013-04-18 21:00:00,47.3,4.6,29.62,WSW,254,1.0,1.0,17,0.00,,,0.00,Wunderground v.1.15,2013-04-19 04:00:00,
2013-04-18 21:05:00,46.6,4.0,29.62,SW,223,1.0,2.0,17,0.00,,,0.00,Wunderground v.1.15,2013-04-19 04:05:00,
2013-04-18 21:10:00,46.5,5.2,29.62,SW,224,1.0,2.0,18,0.00,,,0.00,Wunderground v.1.15,2013-04-19 04:10:00,
2013-04-18 21:15:00,46.0,3.5,29.62,WSW,240,2.0,3.0,17,0.00,,,0.00,Wunderground v.1.15,2013-04-19 04:15:00,
2013-04-18 21:20:00,44.7,3.7,29.62,WSW,253,3.0,4.0,18,0.00,,,0.00,Wunderground v.1.15,2013-04-19 04:20:00,
2013-04-18 21:25:00,44.3,4.6,29.62,WSW,252,3.0,4.0,19,0.00,,,0.00,Wunderground v.1.15,2013-04-19 04:25:00,
2013-04-18 21:35:00,45.1,5.2,29.62,West,259,1.0,3.0,19,0.00,,,0.00,Wunderground v.1.15,2013-04-19 04:35:00,
2013-04-18 21:40:00,46.4,5.1,29.62,WNW,290,2.0,2.0,18,0.00,,,0.00,Wunderground v.1.15,2013-04-19 04:40:00,
2013-04-18 21:45:00,47.6,4.9,29.62,WSW,246,2.0,2.0,17,0.00,,,0.00,Wunderground v.1.15,2013-04-19 04:45:00,
2013-04-18 21:50:00,46.6,5.3,29.62,SW,234,1.0,1.0,18,0.00,,,0.00,Wunderground v.1.15,2013-04-19 04:50:00,
2013-04-18 21:55:00,45.7,5.7,29.62,SW,234,0.0,1.0,19,0.00,,,0.00,Wunderground v.1.15,2013-04-19 04:55:00,
2013-04-18 22:00:00,44.9,5.1,29.62,SW,234,0.0,0.0,19,0.00,,,0.00,Wunderground v.1.15,2013-04-19 05:00:00,
2013-04-18 22:10:00,44.5,4.7,29.62,WSW,240,0.0,0.0,19,0.00,,,0.00,Wunderground v.1.15,2013-04-19 05:10:00,
2013-04-18 22:15:00,44.5,4.7,29.62,WNW,285,0.0,0.0,19,0.00,,,0.00,Wunderground v.1.15,2013-04-19 05:15:00,
2013-04-18 22:20:00,44.5,4.7,29.62,WNW,285,0.0,0.0,19,0.00,,,0.00,Wunderground v.1.15,2013-04-19 05:20:00,
2013-04-18 22:25:00,44.8,6.1,29.62,WNW,288,0.0,0.0,20,0.00,,,0.00,Wunderground v.1.15,2013-04-19 05:25:00,
2013-04-18 22:35:00,45.5,5.6,29.62,WNW,294,1.0,3.0,19,0.00,,,0.00,Wunderground v.1.15,2013-04-19 05:35:00,
2013-04-18 22:40:00,45.6,4.5,29.62,WNW,283,1.0,1.0,18,0.00,,,0.00,Wunderground v.1.15,2013-04-19 05:40:00,
2013-04-18 22:50:00,43.6,4.0,29.62,West,265,1.0,2.0,19,0.00,,,0.00,Wunderground v.1.15,2013-04-19 05:50:00,
2013-04-18 22:55:00,43.6,5.1,29.62,WNW,282,1.0,2.0,20,0.00,,,0.00,Wunderground v.1.15,2013-04-19 05:55:00,
2013-04-18 23:00:00,44.0,4.3,29.62,WNW,287,2.0,3.0,19,0.00,,,0.00,Wunderground v.1.15,2013-04-19 06:00:00,
2013-04-18 23:10:00,43.5,5.0,29.62,SW,234,2.0,2.0,20,0.00,,,0.00,Wunderground v.1.15,2013-04-19 06:10:00,
2013-04-18 23:15:00,41.8,2.5,29.62,SW,229,2.0,5.0,19,0.00,,,0.00,Wunderground v.1.15,2013-04-19 06:15:00,
2013-04-18 23:20:00,40.3,3.4,29.62,SW,227,4.0,4.0,21,0.00,,,0.00,Wunderground v.1.15,2013-04-19 06:20:00,
2013-04-18 23:25:00,39.7,2.9,29.62,SW,227,3.0,4.0,21,0.00,,,0.00,Wunderground v.1.15,2013-04-19 06:25:00,
2013-04-18 23:30:00,39.5,3.7,29.62,South,188,3.0,5.0,22,0.00,,,0.00,Wunderground v.1.15,2013-04-19 06:30:00,
2013-04-18 23:35:00,39.2,3.5,29.62,South,188,3.0,5.0,22,0.00,,,0.00,Wunderground v.1.15,2013-04-19 06:35:00,
2013-04-18 23:40:00,39.9,4.1,29.62,SSW,193,3.0,6.0,22,0.00,,,0.00,Wunderground v.1.15,2013-04-19 06:40:00,
2013-04-18 23:45:00,40.9,3.9,29.62,SSW,197,5.0,7.0,21,0.00,,,0.00,Wunderground v.1.15,2013-04-19 06:45:00,
2013-04-18 23:50:00,41.0,4.0,29.62,South,188,6.0,6.0,21,0.00,,,0.00,Wunderground v.1.15,2013-04-19 06:50:00,